Time;durP1;ratioP1;P1;durP2;ratioP2;P2;SDS_P1;SDS_P2;PMS_P1;PMS_P2;Temp;Humidity;BMP_temperature;BMP_pressure;BME280_temperature;BME280_humidity;BME280_pressure;Samples;Min_cycle;Max_cycle;Signal;HPM_P1;HPM_P2
2022/11/28 00:00:37;;;;;;;9.88;7.78;;;5.90;99.90;;;;;;4982592;28;20488;-64
2022/11/28 00:03:03;;;;;;;11.23;7.68;;;6.40;99.90;;;;;;4982413;28;20121;-60
2022/11/28 00:05:29;;;;;;;11.77;7.75;;;5.80;99.90;;;;;;4995819;28;20038;-68
2022/11/28 00:07:54;;;;;;;10.15;7.10;;;5.90;99.90;;;;;;4988131;28;20065;-67
2022/11/28 00:10:21;;;;;;;9.10;7.53;;;5.60;99.90;;;;;;4987162;28;20047;-68
2022/11/28 00:12:46;;;;;;;11.43;7.60;;;5.70;99.90;;;;;;4987220;28;20073;-67
2022/11/28 00:15:12;;;;;;;13.15;7.47;;;5.70;99.90;;;;;;4987226;28;20397;-67
2022/11/28 00:17:38;;;;;;;9.35;6.80;;;5.80;99.90;;;;;;4986113;28;20078;-67
2022/11/28 00:20:04;;;;;;;9.60;7.13;;;6.50;99.90;;;;;;4986703;28;20062;-62
2022/11/28 00:22:30;;;;;;;9.23;7.10;;;5.80;99.90;;;;;;4986308;28;20608;-64
2022/11/28 00:24:55;;;;;;;10.57;7.30;;;5.90;99.90;;;;;;4986269;28;20129;-63
2022/11/28 00:27:21;;;;;;;9.30;6.95;;;6.30;99.90;;;;;;5001898;28;20250;-65
2022/11/28 00:29:47;;;;;;;11.05;7.07;;;5.80;99.90;;;;;;4986632;28;20072;-66
2022/11/28 00:32:12;;;;;;;9.55;7.00;;;6.30;99.90;;;;;;4987143;28;20047;-66
2022/11/28 00:34:38;;;;;;;9.10;6.20;;;6.30;99.90;;;;;;4986201;28;20046;-67
2022/11/28 00:37:04;;;;;;;9.90;5.90;;;5.70;99.90;;;;;;5001416;28;20050;-67
2022/11/28 00:39:29;;;;;;;9.20;6.95;;;6.10;99.90;;;;;;5000864;28;20050;-67
2022/11/28 00:41:55;;;;;;;11.57;6.82;;;6.00;99.90;;;;;;4987076;28;20438;-63
2022/11/28 00:44:21;;;;;;;8.35;6.80;;;6.00;99.90;;;;;;4984466;28;20046;-66
2022/11/28 00:46:46;;;;;;;9.00;5.50;;;6.40;99.90;;;;;;4986661;28;20495;-63
2022/11/28 00:49:12;;;;;;;10.27;7.20;;;5.80;99.90;;;;;;4986422;28;20050;-63
2022/11/28 00:51:38;;;;;;;8.57;6.65;;;6.00;99.90;;;;;;4986966;28;20088;-66
2022/11/28 00:54:05;;;;;;;9.63;6.72;;;6.10;99.90;;;;;;4985089;28;20516;-64
2022/11/28 00:56:34;;;;;;;10.93;8.10;;;5.90;99.90;;;;;;4986521;28;20043;-65
2022/11/28 00:59:00;;;;;;;9.43;6.13;;;6.10;99.90;;;;;;4986721;28;20057;-66
2022/11/28 01:01:29;;;;;;;8.63;6.97;;;6.20;99.90;;;;;;4985736;28;20085;-64
2022/11/28 01:03:57;;;;;;;9.45;6.72;;;5.90;99.90;;;;;;4987275;28;20043;-64
2022/11/28 01:06:26;;;;;;;8.52;5.07;;;5.80;99.90;;;;;;4996153;28;20101;-64
2022/11/28 01:08:52;;;;;;;10.25;7.10;;;6.40;99.90;;;;;;4984900;28;20122;-67
2022/11/28 01:11:18;;;;;;;11.70;7.90;;;6.40;99.90;;;;;;4985386;28;20564;-66
2022/11/28 01:13:44;;;;;;;8.02;6.55;;;6.20;99.90;;;;;;4984961;28;20034;-67
2022/11/28 01:16:10;;;;;;;10.82;7.75;;;6.10;99.90;;;;;;4984738;28;20042;-66
2022/11/28 01:18:36;;;;;;;10.18;7.82;;;6.00;99.90;;;;;;4985697;28;20053;-63
2022/11/28 01:21:03;;;;;;;11.18;7.65;;;6.90;99.90;;;;;;4985654;28;20573;-64
2022/11/28 01:23:29;;;;;;;12.15;7.75;;;5.80;99.90;;;;;;4985803;28;20296;-63
2022/11/28 01:25:55;;;;;;;11.75;7.57;;;6.90;99.90;;;;;;4986113;28;20516;-64
2022/11/28 01:28:20;;;;;;;11.32;7.78;;;6.10;99.90;;;;;;4985219;28;20050;-65
2022/11/28 01:30:46;;;;;;;9.95;8.35;;;5.90;99.90;;;;;;4985872;28;20042;-65
2022/11/28 01:33:12;;;;;;;11.40;8.18;;;5.70;99.90;;;;;;4985319;28;20081;-66
2022/11/28 01:35:37;;;;;;;11.98;8.82;;;6.10;99.90;;;;;;4984220;28;20049;-66
2022/11/28 01:38:03;;;;;;;11.32;7.57;;;6.10;99.90;;;;;;4984862;28;20050;-67
2022/11/28 01:40:29;;;;;;;11.48;8.55;;;6.30;99.90;;;;;;4984154;28;20034;-66
2022/11/28 01:42:54;;;;;;;10.98;8.82;;;6.10;99.90;;;;;;4984837;28;20047;-66
2022/11/28 01:45:24;;;;;;;13.63;8.57;;;6.10;99.90;;;;;;4984035;28;20074;-62
2022/11/28 01:47:52;;;;;;;13.30;8.73;;;6.10;99.90;;;;;;4984890;28;20042;-66
2022/11/28 01:50:20;;;;;;;11.95;8.80;;;6.00;99.90;;;;;;4984371;28;20098;-67
2022/11/28 01:52:51;;;;;;;13.63;8.98;;;6.00;99.90;;;;;;4982847;28;20093;-66
2022/11/28 01:55:21;;;;;;;15.02;7.20;;;6.10;99.90;;;;;;4984926;28;20115;-62
2022/11/28 01:57:47;;;;;;;11.70;8.38;;;6.10;99.90;;;;;;4985965;28;20190;-67
2022/11/28 02:00:17;;;;;;;15.98;8.35;;;5.70;99.90;;;;;;4984864;28;20141;-64
2022/11/28 02:02:45;;;;;;;12.43;9.00;;;6.00;99.90;;;;;;4985156;28;20154;-63
2022/11/28 02:05:11;;;;;;;12.20;9.40;;;6.10;99.90;;;;;;4990553;28;20116;-64
2022/11/28 02:07:37;;;;;;;11.82;9.52;;;6.30;99.90;;;;;;4999372;28;20030;-64
2022/11/28 02:10:07;;;;;;;12.18;9.45;;;6.10;99.90;;;;;;5003855;28;20050;-63
2022/11/28 02:12:47;;;;;;;13.93;9.25;;;5.90;99.90;;;;;;5005038;28;20042;-63
2022/11/28 02:15:18;;;;;;;11.57;8.77;;;5.90;99.90;;;;;;5004256;28;20444;-66
2022/11/28 02:18:21;;;;;;;11.95;8.80;;;5.70;99.90;;;;;;5004352;28;20049;-65
2022/11/28 02:21:01;;;;;;;11.73;9.63;;;6.00;99.90;;;;;;5003192;28;20513;-65
2022/11/28 02:23:53;;;;;;;11.90;9.13;;;6.10;99.90;;;;;;5003623;28;20583;-64
2022/11/28 02:26:40;;;;;;;12.60;9.63;;;5.70;99.90;;;;;;5004125;28;20595;-67
2022/11/28 02:29:21;;;;;;;13.35;9.70;;;6.00;99.90;;;;;;5004626;28;20046;-67
2022/11/28 02:32:15;;;;;;;11.38;9.40;;;6.10;99.90;;;;;;5004205;28;20108;-67
2022/11/28 02:35:08;;;;;;;15.43;10.10;;;5.70;99.90;;;;;;5003744;28;20041;-66
2022/11/28 02:37:51;;;;;;;11.00;6.38;;;6.10;99.90;;;;;;5003519;28;20416;-63
2022/11/28 02:40:26;;;;;;;14.07;10.38;;;6.00;99.90;;;;;;5003624;28;20037;-64
2022/11/28 02:43:22;;;;;;;14.02;10.20;;;6.10;99.90;;;;;;5002221;28;20046;-66
2022/11/28 02:46:15;;;;;;;16.20;10.18;;;6.00;99.90;;;;;;5003658;28;20053;-67
2022/11/28 02:49:02;;;;;;;11.80;9.65;;;5.80;99.90;;;;;;5003546;28;20053;-65
2022/11/28 02:51:36;;;;;;;10.85;8.63;;;6.00;99.90;;;;;;5003651;28;20038;-63
2022/11/28 02:54:05;;;;;;;12.60;9.40;;;6.00;99.90;;;;;;5003310;28;20049;-64
2022/11/28 02:56:31;;;;;;;12.55;10.32;;;5.70;99.90;;;;;;5003923;28;20053;-66
2022/11/28 02:58:56;;;;;;;13.93;10.50;;;6.80;99.90;;;;;;5003738;28;20094;-64
2022/11/28 03:01:28;;;;;;;13.32;10.82;;;6.00;99.90;;;;;;5002456;28;20041;-64
2022/11/28 03:04:14;;;;;;;11.15;8.52;;;6.30;99.90;;;;;;5001796;28;20520;-66
2022/11/28 03:07:08;;;;;;;16.92;10.05;;;6.10;99.90;;;;;;4990879;28;20054;-63
2022/11/28 03:09:54;;;;;;;11.98;9.00;;;6.10;99.90;;;;;;4983668;28;20108;-67
2022/11/28 03:12:38;;;;;;;12.93;10.18;;;6.20;99.90;;;;;;4983401;28;20054;-63
2022/11/28 03:15:07;;;;;;;10.82;8.27;;;5.90;99.90;;;;;;4984345;28;20081;-64
2022/11/28 03:17:59;;;;;;;13.18;10.18;;;5.80;99.90;;;;;;4983451;28;20335;-65
2022/11/28 03:20:37;;;;;;;11.75;8.93;;;6.20;99.90;;;;;;4983845;28;20058;-67
2022/11/28 03:23:14;;;;;;;14.82;10.05;;;6.30;99.90;;;;;;4983566;28;20054;-66
2022/11/28 03:26:04;;;;;;;15.52;11.18;;;6.10;99.90;;;;;;4983825;28;20039;-63
2022/11/28 03:28:47;;;;;;;15.13;10.80;;;6.20;99.90;;;;;;4983937;28;20051;-66
2022/11/28 03:31:25;;;;;;;13.70;10.25;;;6.30;99.90;;;;;;4983504;28;20045;-66
2022/11/28 03:33:55;;;;;;;11.65;9.63;;;6.40;99.90;;;;;;4983872;28;20064;-66
2022/11/28 03:36:26;;;;;;;12.85;9.98;;;6.20;99.90;;;;;;4983773;28;20390;-64
2022/11/28 03:39:03;;;;;;;10.57;7.43;;;6.30;99.90;;;;;;4981610;28;20086;-66
2022/11/28 03:41:42;;;;;;;12.25;9.77;;;6.20;99.90;;;;;;4983636;28;20050;-66
2022/11/28 03:44:17;;;;;;;14.88;10.82;;;6.20;99.90;;;;;;4982876;28;20046;-63
2022/11/28 03:46:46;;;;;;;12.95;10.73;;;6.30;99.90;;;;;;4983407;28;20429;-65
2022/11/28 03:49:16;;;;;;;13.43;9.95;;;6.20;99.90;;;;;;4983785;28;20045;-67
2022/11/28 03:51:50;;;;;;;17.00;11.10;;;6.50;99.90;;;;;;4982398;28;20232;-64
2022/11/28 03:54:28;;;;;;;15.40;11.03;;;6.40;99.90;;;;;;4983081;28;20065;-67
2022/11/28 03:57:10;;;;;;;16.30;11.00;;;6.20;99.90;;;;;;4983614;28;20212;-64
2022/11/28 03:59:46;;;;;;;14.13;10.07;;;6.40;99.90;;;;;;4983951;28;20754;-64
2022/11/28 04:02:36;;;;;;;10.00;7.38;;;6.60;99.90;;;;;;4983357;28;20039;-63
2022/11/28 04:05:07;;;;;;;12.15;9.70;;;6.30;99.90;;;;;;4988527;28;20044;-67
2022/11/28 04:08:05;;;;;;;13.02;10.13;;;6.20;99.90;;;;;;4987506;28;20046;-67
2022/11/28 04:10:34;;;;;;;16.92;10.15;;;6.60;99.90;;;;;;4981428;28;20495;-67
2022/11/28 04:13:21;;;;;;;13.88;9.00;;;6.30;99.90;;;;;;4982746;28;20050;-63
2022/11/28 04:15:59;;;;;;;14.75;10.48;;;6.60;99.90;;;;;;4983318;28;20177;-64
2022/11/28 04:19:01;;;;;;;13.70;10.27;;;6.30;99.90;;;;;;4981551;28;20434;-64
2022/11/28 04:21:40;;;;;;;13.75;9.90;;;6.70;99.90;;;;;;4983928;28;20061;-64
2022/11/28 04:24:13;;;;;;;11.27;8.23;;;6.70;99.90;;;;;;4983459;28;20073;-66
2022/11/28 04:26:46;;;;;;;13.15;9.85;;;6.50;99.90;;;;;;4983689;28;20104;-66
2022/11/28 04:29:16;;;;;;;11.95;8.95;;;6.60;99.90;;;;;;4982674;28;20350;-66
2022/11/28 04:31:44;;;;;;;12.70;9.30;;;6.80;99.90;;;;;;4983158;28;20073;-65
2022/11/28 04:34:16;;;;;;;14.15;10.10;;;7.20;99.90;;;;;;4982391;28;20039;-67
2022/11/28 04:36:43;;;;;;;14.90;8.60;;;6.80;99.90;;;;;;4980519;28;20050;-63
2022/11/28 04:39:14;;;;;;;14.70;10.63;;;7.50;99.90;;;;;;4983586;28;20085;-63
2022/11/28 04:42:00;;;;;;;13.73;10.73;;;6.80;99.90;;;;;;4982933;28;20054;-61
2022/11/28 04:44:35;;;;;;;13.90;9.73;;;6.60;99.90;;;;;;4982650;28;20355;-66
2022/11/28 04:47:02;;;;;;;15.02;11.07;;;6.60;99.90;;;;;;4982901;28;20039;-63
2022/11/28 04:49:29;;;;;;;15.00;11.43;;;6.80;99.90;;;;;;4982090;28;20054;-64
2022/11/28 04:51:59;;;;;;;15.63;10.23;;;6.70;99.90;;;;;;4984537;28;20784;-65
2022/11/28 04:54:45;;;;;;;14.45;11.05;;;6.90;99.90;;;;;;4986256;28;20043;-62
2022/11/28 04:57:43;;;;;;;10.38;8.20;;;6.50;99.90;;;;;;4986215;28;20724;-64
2022/11/28 05:00:15;;;;;;;18.38;13.50;;;6.60;99.90;;;;;;4962841;28;20074;-66
2022/11/28 05:02:42;;;;;;;16.17;13.00;;;6.80;99.90;;;;;;4986607;28;20054;-66
2022/11/28 05:05:14;;;;;;;16.15;8.55;;;7.10;99.90;;;;;;4992435;28;20048;-67
2022/11/28 05:07:40;;;;;;;18.77;14.45;;;6.60;99.90;;;;;;4988829;28;20459;-64
2022/11/28 05:10:07;;;;;;;18.42;15.65;;;7.10;99.90;;;;;;4986168;28;20159;-66
2022/11/28 05:12:32;;;;;;;22.50;16.33;;;6.50;99.90;;;;;;4986022;28;20133;-63
2022/11/28 05:14:58;;;;;;;21.52;16.23;;;6.40;99.90;;;;;;4985989;28;20129;-66
2022/11/28 05:17:23;;;;;;;20.70;16.38;;;6.40;99.90;;;;;;4985388;28;20042;-62
2022/11/28 05:19:49;;;;;;;21.20;16.10;;;7.20;99.90;;;;;;4986071;28;20050;-68
2022/11/28 05:22:15;;;;;;;22.42;16.67;;;6.50;99.90;;;;;;4985738;28;20520;-66
2022/11/28 05:24:40;;;;;;;21.38;14.88;;;6.60;99.90;;;;;;4986042;28;20486;-66
2022/11/28 05:27:06;;;;;;;21.92;16.95;;;6.60;99.90;;;;;;4985108;28;20493;-67
2022/11/28 05:29:32;;;;;;;21.08;15.15;;;6.70;99.90;;;;;;4986373;28;20046;-61
2022/11/28 05:31:58;;;;;;;21.67;16.90;;;6.50;99.90;;;;;;4985513;28;20081;-62
2022/11/28 05:34:23;;;;;;;23.42;18.15;;;6.40;99.90;;;;;;4985296;28;20042;-65
2022/11/28 05:36:49;;;;;;;25.83;19.67;;;6.50;99.90;;;;;;4985026;28;20073;-63
2022/11/28 05:39:15;;;;;;;23.45;17.88;;;6.50;99.90;;;;;;4985258;28;20070;-63
2022/11/28 05:41:41;;;;;;;22.92;17.17;;;7.30;99.90;;;;;;4986177;28;20046;-66
2022/11/28 05:44:06;;;;;;;17.88;10.63;;;6.50;99.90;;;;;;4984941;28;20669;-67
2022/11/28 05:46:32;;;;;;;25.63;19.02;;;6.60;99.90;;;;;;4985699;28;20050;-63
2022/11/28 05:48:57;;;;;;;24.92;18.27;;;6.70;99.90;;;;;;4986144;28;20042;-66
2022/11/28 05:51:23;;;;;;;25.00;19.65;;;6.40;99.90;;;;;;4985259;28;20039;-66
2022/11/28 05:53:50;;;;;;;24.77;19.20;;;7.60;99.90;;;;;;4985110;28;20034;-66
2022/11/28 05:56:17;;;;;;;26.60;20.67;;;6.80;99.90;;;;;;4984198;28;20058;-64
2022/11/28 05:58:43;;;;;;;24.60;20.55;;;7.10;99.90;;;;;;4986237;28;20035;-64
2022/11/28 06:01:13;;;;;;;24.75;17.30;;;7.00;99.90;;;;;;4983496;28;20485;-63
2022/11/28 06:03:39;;;;;;;28.05;21.33;;;6.80;99.90;;;;;;4984937;28;20046;-66
2022/11/28 06:06:16;;;;;;;26.60;21.45;;;7.20;99.90;;;;;;4993378;28;20045;-63
2022/11/28 06:08:42;;;;;;;24.27;18.38;;;6.80;99.90;;;;;;5004852;28;20065;-67
2022/11/28 06:11:08;;;;;;;27.13;23.33;;;6.60;99.90;;;;;;5004736;28;20120;-66
2022/11/28 06:13:35;;;;;;;20.77;16.77;;;6.80;99.90;;;;;;5004445;28;20516;-67
2022/11/28 06:16:00;;;;;;;28.88;23.08;;;6.90;99.90;;;;;;5005064;28;20064;-67
2022/11/28 06:18:26;;;;;;;30.38;24.73;;;7.20;99.90;;;;;;5004150;28;20057;-66
2022/11/28 06:20:52;;;;;;;33.72;25.48;;;6.70;99.90;;;;;;5004212;28;20057;-65
2022/11/28 06:23:17;;;;;;;34.58;24.83;;;6.80;99.90;;;;;;5004311;28;20052;-62
2022/11/28 06:25:43;;;;;;;30.58;24.13;;;6.90;99.90;;;;;;5004597;28;20595;-66
2022/11/28 06:28:09;;;;;;;32.30;26.63;;;6.70;99.90;;;;;;5003684;28;20046;-65
2022/11/28 06:30:34;;;;;;;37.35;26.85;;;6.70;99.90;;;;;;5003877;28;20127;-65
2022/11/28 06:33:00;;;;;;;32.85;25.95;;;6.80;99.90;;;;;;5004264;28;20046;-66
2022/11/28 06:35:25;;;;;;;26.52;20.25;;;7.30;99.90;;;;;;5003875;28;20050;-66
2022/11/28 06:37:51;;;;;;;32.00;24.52;;;7.20;99.90;;;;;;5003174;28;20103;-66
2022/11/28 06:40:17;;;;;;;30.38;24.38;;;7.00;99.90;;;;;;5003131;28;20169;-64
2022/11/28 06:42:42;;;;;;;33.60;26.48;;;6.80;99.90;;;;;;5003972;28;20050;-67
2022/11/28 06:45:08;;;;;;;35.53;28.58;;;7.00;99.90;;;;;;5003596;28;20141;-65
2022/11/28 06:47:34;;;;;;;31.63;27.35;;;6.80;99.90;;;;;;5004027;28;20050;-66
2022/11/28 06:50:00;;;;;;;33.00;27.33;;;7.20;99.90;;;;;;5003871;28;20257;-65
2022/11/28 06:52:26;;;;;;;34.38;28.33;;;7.10;99.90;;;;;;5002837;28;20060;-63
2022/11/28 06:54:51;;;;;;;37.13;29.45;;;6.80;99.90;;;;;;5003149;28;20034;-64
2022/11/28 06:57:17;;;;;;;26.88;20.42;;;7.10;99.90;;;;;;5003592;28;20605;-64
2022/11/28 06:59:42;;;;;;;31.83;27.60;;;7.10;99.90;;;;;;5003592;28;20359;-65
2022/11/28 07:02:10;;;;;;;25.60;16.70;;;7.40;99.90;;;;;;5003748;28;20465;-62
2022/11/28 07:04:35;;;;;;;31.75;26.45;;;6.90;99.90;;;;;;4997031;28;20050;-66
2022/11/28 07:07:01;;;;;;;32.00;24.55;;;7.00;99.90;;;;;;4991771;28;20370;-66
2022/11/28 07:09:27;;;;;;;31.90;25.90;;;6.90;99.90;;;;;;4983867;28;20505;-65
2022/11/28 07:11:53;;;;;;;24.00;14.75;;;6.80;99.90;;;;;;4982651;28;20069;-65
2022/11/28 07:14:18;;;;;;;31.10;24.83;;;7.10;99.90;;;;;;4982512;28;20080;-62
2022/11/28 07:16:44;;;;;;;32.08;25.80;;;7.50;99.90;;;;;;4983621;28;20133;-64
2022/11/28 07:19:11;;;;;;;31.92;24.88;;;6.90;99.90;;;;;;4983558;28;20050;-63
2022/11/28 07:21:36;;;;;;;31.58;25.90;;;7.20;99.90;;;;;;4982261;28;20645;-63
2022/11/28 07:24:02;;;;;;;27.98;21.10;;;7.40;99.90;;;;;;4983650;28;20046;-65
2022/11/28 07:26:28;;;;;;;25.75;20.45;;;6.90;99.90;;;;;;4983424;28;20049;-66
2022/11/28 07:28:56;;;;;;;31.00;24.75;;;7.10;99.90;;;;;;4982944;28;20043;-64
2022/11/28 07:31:25;;;;;;;31.08;24.73;;;7.30;99.90;;;;;;4982728;28;20050;-62
2022/11/28 07:33:51;;;;;;;32.92;25.08;;;7.00;99.90;;;;;;4983175;28;20042;-62
2022/11/28 07:36:23;;;;;;;24.85;18.30;;;7.20;99.90;;;;;;4980882;28;20112;-64
2022/11/28 07:38:50;;;;;;;28.77;22.38;;;7.30;99.90;;;;;;4982707;28;20073;-63
2022/11/28 07:41:17;;;;;;;24.58;19.45;;;7.00;99.90;;;;;;4982895;28;20506;-66
2022/11/28 07:43:44;;;;;;;28.25;24.77;;;7.30;99.90;;;;;;4981649;28;20572;-63
2022/11/28 07:46:15;;;;;;;28.65;24.25;;;7.30;99.90;;;;;;4981387;28;20043;-60
2022/11/28 07:48:41;;;;;;;26.77;23.10;;;7.00;99.90;;;;;;4982336;28;20038;-64
2022/11/28 07:51:13;;;;;;;29.20;21.25;;;7.20;99.90;;;;;;4981637;28;20038;-66
2022/11/28 07:53:39;;;;;;;30.27;24.50;;;7.20;99.90;;;;;;4981402;28;20046;-64
2022/11/28 07:56:08;;;;;;;17.38;12.20;;;7.10;99.90;;;;;;4983193;28;20367;-63
2022/11/28 07:58:35;;;;;;;27.35;24.20;;;7.00;99.90;;;;;;4983245;28;20504;-64
2022/11/28 08:01:12;;;;;;;28.88;23.30;;;7.70;99.90;;;;;;4981859;28;20378;-65
2022/11/28 08:03:37;;;;;;;28.80;24.10;;;7.10;99.90;;;;;;4982688;28;20438;-66
2022/11/28 08:06:04;;;;;;;30.10;24.25;;;7.70;99.90;;;;;;4993776;28;20064;-65
2022/11/28 08:08:30;;;;;;;23.15;16.35;;;7.10;99.90;;;;;;4983236;28;20046;-66
2022/11/28 08:11:01;;;;;;;27.67;21.27;;;7.30;99.90;;;;;;4982388;28;20051;-61
2022/11/28 08:13:27;;;;;;;26.20;22.25;;;7.60;99.90;;;;;;4982927;28;20051;-63
2022/11/28 08:15:53;;;;;;;28.35;21.08;;;7.80;99.90;;;;;;4983746;28;20085;-64
2022/11/28 08:18:19;;;;;;;29.00;24.35;;;7.10;99.90;;;;;;4982753;28;20480;-64
2022/11/28 08:20:45;;;;;;;29.35;24.77;;;7.30;99.90;;;;;;4982056;28;20064;-65
2022/11/28 08:23:10;;;;;;;22.60;16.50;;;7.00;99.90;;;;;;4982916;28;20082;-65
2022/11/28 08:25:36;;;;;;;27.35;23.20;;;7.70;99.90;;;;;;4985378;28;20500;-67
2022/11/28 08:28:02;;;;;;;31.20;25.70;;;7.50;99.90;;;;;;4986152;28;20476;-65
2022/11/28 08:30:28;;;;;;;28.60;23.13;;;7.10;99.90;;;;;;4987000;28;20124;-66
2022/11/28 08:32:53;;;;;;;28.60;22.38;;;7.10;99.90;;;;;;4986745;28;20080;-65
2022/11/28 08:35:20;;;;;;;30.92;24.58;;;7.30;99.90;;;;;;4985552;28;20049;-67
2022/11/28 08:37:46;;;;;;;27.98;20.48;;;7.30;99.90;;;;;;4984373;28;20398;-64
2022/11/28 08:40:12;;;;;;;25.83;20.67;;;7.00;99.90;;;;;;4986362;28;20046;-64
2022/11/28 08:42:38;;;;;;;26.73;20.13;;;7.30;99.90;;;;;;4986060;28;20081;-65
2022/11/28 08:45:05;;;;;;;27.80;21.85;;;7.10;99.90;;;;;;4984951;28;20659;-61
2022/11/28 08:47:31;;;;;;;29.05;23.00;;;7.10;99.90;;;;;;4985518;28;20038;-66
2022/11/28 08:49:57;;;;;;;31.33;24.92;;;7.10;99.90;;;;;;4985571;28;20057;-67
2022/11/28 08:52:23;;;;;;;30.13;22.63;;;7.10;99.90;;;;;;4986270;28;20031;-67
2022/11/28 08:54:49;;;;;;;30.95;23.92;;;7.50;99.90;;;;;;4985655;28;20049;-67
2022/11/28 08:57:15;;;;;;;29.80;22.98;;;7.40;99.90;;;;;;4986752;28;20038;-66
2022/11/28 08:59:40;;;;;;;29.85;24.25;;;7.40;99.90;;;;;;4986772;28;20046;-65
2022/11/28 09:02:09;;;;;;;28.85;21.92;;;7.10;99.90;;;;;;4986081;28;20049;-65
2022/11/28 09:04:35;;;;;;;25.88;17.65;;;7.40;99.90;;;;;;4987831;28;20034;-65
2022/11/28 09:07:01;;;;;;;31.73;23.38;;;7.30;99.90;;;;;;4994214;28;20034;-67
2022/11/28 09:09:28;;;;;;;30.63;25.00;;;7.30;99.90;;;;;;4986577;28;20048;-66
2022/11/28 09:11:54;;;;;;;30.52;24.40;;;7.50;99.90;;;;;;4983822;28;20126;-66
2022/11/28 09:14:19;;;;;;;32.22;25.48;;;7.10;99.90;;;;;;4986262;28;20525;-66
2022/11/28 09:16:45;;;;;;;32.72;25.73;;;7.40;99.90;;;;;;4985670;28;20038;-62
2022/11/28 09:19:11;;;;;;;25.80;16.80;;;7.40;99.90;;;;;;4985620;28;20050;-64
2022/11/28 09:21:37;;;;;;;28.17;23.45;;;7.30;99.90;;;;;;4984430;28;20050;-66
2022/11/28 09:24:03;;;;;;;25.63;20.98;;;7.80;99.90;;;;;;4985922;28;20046;-64
2022/11/28 09:26:28;;;;;;;28.50;22.23;;;7.30;99.90;;;;;;4985290;28;20076;-64
2022/11/28 09:28:54;;;;;;;29.73;23.30;;;7.40;99.90;;;;;;4985983;28;20050;-64
2022/11/28 09:31:20;;;;;;;30.00;21.98;;;7.50;99.90;;;;;;4983519;28;20409;-66
2022/11/28 09:33:48;;;;;;;23.85;16.85;;;7.40;99.90;;;;;;4985701;28;20046;-67
2022/11/28 09:36:17;;;;;;;31.17;26.45;;;7.40;99.90;;;;;;4983774;28;20054;-65
2022/11/28 09:38:43;;;;;;;33.00;23.77;;;7.30;99.90;;;;;;4984663;28;20047;-64
2022/11/28 09:41:27;;;;;;;30.13;23.80;;;7.80;99.90;;;;;;4985176;28;20680;-65
2022/11/28 09:43:55;;;;;;;31.45;26.10;;;7.30;99.90;;;;;;4984719;28;20060;-65
2022/11/28 09:46:27;;;;;;;31.98;24.33;;;7.40;99.90;;;;;;4984950;28;20081;-66
2022/11/28 09:48:56;;;;;;;29.25;23.63;;;6.90;99.90;;;;;;4985813;28;20101;-66
2022/11/28 09:51:46;;;;;;;24.95;17.42;;;7.50;99.90;;;;;;4984500;28;20040;-67
2022/11/28 09:54:18;;;;;;;29.05;22.83;;;7.70;99.90;;;;;;4985278;28;20105;-66
2022/11/28 09:56:47;;;;;;;28.27;20.65;;;7.60;99.90;;;;;;4985688;28;20480;-65
2022/11/28 09:59:24;;;;;;;27.42;21.58;;;7.40;99.90;;;;;;4984496;28;20070;-65
2022/11/28 10:01:55;;;;;;;22.58;17.23;;;7.50;99.90;;;;;;4984816;28;20085;-63
2022/11/28 10:04:40;;;;;;;29.10;23.65;;;7.60;99.90;;;;;;4987385;28;20591;-66
2022/11/28 10:07:20;;;;;;;22.30;17.23;;;7.60;99.90;;;;;;4995406;28;20324;-65
2022/11/28 10:10:07;;;;;;;28.13;21.90;;;7.60;99.90;;;;;;5002428;28;20096;-68
2022/11/28 10:12:44;;;;;;;25.40;17.83;;;7.50;99.90;;;;;;5004097;28;20057;-65
2022/11/28 10:15:24;;;;;;;26.52;21.92;;;7.30;99.90;;;;;;5003599;28;20049;-65
2022/11/28 10:18:19;;;;;;;24.10;19.45;;;7.50;99.90;;;;;;5004298;28;20095;-66
2022/11/28 10:20:50;;;;;;;27.65;20.88;;;7.90;99.90;;;;;;4992695;28;20054;-64
2022/11/28 10:23:25;;;;;;;22.73;18.67;;;7.70;99.90;;;;;;5003950;28;20088;-57
2022/11/28 10:26:06;;;;;;;24.05;20.77;;;7.40;99.90;;;;;;5002485;28;20046;-63
2022/11/28 10:28:36;;;;;;;24.88;20.15;;;7.60;99.90;;;;;;5004693;28;20046;-65
2022/11/28 10:31:12;;;;;;;24.88;19.52;;;7.60;99.90;;;;;;5003571;28;20062;-65
2022/11/28 10:33:46;;;;;;;16.83;12.00;;;7.40;99.90;;;;;;5003617;28;20069;-65
2022/11/28 10:36:34;;;;;;;22.92;18.45;;;7.60;99.90;;;;;;5003077;28;20074;-64
2022/11/28 10:39:09;;;;;;;22.30;17.92;;;7.40;99.90;;;;;;5004772;28;20054;-65
2022/11/28 10:41:45;;;;;;;21.38;16.80;;;7.60;99.90;;;;;;5004226;28;20070;-62
2022/11/28 10:44:14;;;;;;;22.38;17.95;;;7.50;99.90;;;;;;5002660;28;20052;-65
2022/11/28 10:46:44;;;;;;;16.42;12.35;;;7.70;99.90;;;;;;5003453;28;20034;-66
2022/11/28 10:49:23;;;;;;;23.70;20.35;;;7.40;99.90;;;;;;5003063;28;20044;-63
2022/11/28 10:51:59;;;;;;;22.58;19.05;;;7.40;99.90;;;;;;5003285;28;20050;-65
2022/11/28 10:54:50;;;;;;;22.00;18.95;;;7.60;99.90;;;;;;5003168;28;20400;-65
2022/11/28 10:57:56;;;;;;;20.95;18.50;;;7.40;99.90;;;;;;5004079;28;20054;-65
2022/11/28 11:00:22;;;;;;;;;;;7.40;99.90;;;;;;5004054;28;20050;-66
2022/11/28 11:02:50;;;;;;;21.77;18.45;;;7.60;99.90;;;;;;5004232;28;19928;-62
2022/11/28 11:05:24;;;;;;;11.70;9.20;;;8.10;99.90;;;;;;4997754;28;20177;-65
2022/11/28 11:08:19;;;;;;;20.83;16.77;;;7.40;99.90;;;;;;4985742;28;20100;-65
2022/11/28 11:11:00;;;;;;;19.23;17.13;;;7.60;99.90;;;;;;4984372;28;20054;-64
2022/11/28 11:13:29;;;;;;;18.58;16.58;;;7.70;99.90;;;;;;4983916;28;20372;-64
2022/11/28 11:16:02;;;;;;;20.38;16.17;;;8.00;99.90;;;;;;4996064;28;20229;-62
2022/11/28 11:18:55;;;;;;;20.23;16.45;;;8.20;99.90;;;;;;5002907;28;20073;-63
2022/11/28 11:21:25;;;;;;;18.33;16.35;;;7.60;99.90;;;;;;5000642;28;20131;-64
2022/11/28 11:24:14;;;;;;;18.38;16.38;;;7.50;99.90;;;;;;5002165;28;20050;-65
2022/11/28 11:26:43;;;;;;;18.63;16.67;;;7.40;99.90;;;;;;5002302;28;20042;-64
2022/11/28 11:29:27;;;;;;;17.58;15.68;;;7.70;99.90;;;;;;5002652;28;20073;-65
2022/11/28 11:31:53;;;;;;;18.25;15.90;;;7.70;99.90;;;;;;5004043;28;20394;-65
2022/11/28 11:34:22;;;;;;;17.25;13.95;;;7.50;99.90;;;;;;5002759;28;20049;-65
2022/11/28 11:36:49;;;;;;;20.40;16.98;;;7.60;99.90;;;;;;5000749;28;20187;-60
2022/11/28 11:39:19;;;;;;;19.13;16.13;;;7.70;99.90;;;;;;5002217;28;20465;-64
2022/11/28 11:41:50;;;;;;;16.35;11.82;;;7.70;99.90;;;;;;5002832;28;20091;-62
2022/11/28 11:44:24;;;;;;;21.33;16.67;;;7.50;99.90;;;;;;5003140;28;20416;-65
2022/11/28 11:46:54;;;;;;;19.03;17.00;;;7.60;99.90;;;;;;5002370;28;20099;-63
2022/11/28 11:49:30;;;;;;;19.52;17.42;;;7.50;99.90;;;;;;5003277;28;20046;-64
2022/11/28 11:51:57;;;;;;;16.70;13.45;;;7.70;99.90;;;;;;5002479;28;20050;-62
2022/11/28 11:54:23;;;;;;;19.42;16.80;;;8.00;99.90;;;;;;5002730;28;20049;-63
2022/11/28 11:56:49;;;;;;;19.80;17.60;;;7.70;99.90;;;;;;5002863;28;20038;-65
2022/11/28 11:59:18;;;;;;;19.70;17.05;;;7.50;99.90;;;;;;5000916;28;20038;-65
2022/11/28 12:01:48;;;;;;;20.38;17.77;;;7.60;99.90;;;;;;5006848;28;20050;-65
2022/11/28 12:04:34;;;;;;;23.08;17.67;;;7.90;99.90;;;;;;5002721;28;20398;-63
2022/11/28 12:07:05;;;;;;;20.48;17.55;;;7.80;99.90;;;;;;4997712;28;20053;-67
2022/11/28 12:09:44;;;;;;;20.15;18.00;;;7.80;99.90;;;;;;5006283;28;20049;-63
2022/11/28 12:12:15;;;;;;;21.23;18.35;;;7.70;99.90;;;;;;5006268;28;20045;-62
2022/11/28 12:14:41;;;;;;;19.50;17.23;;;7.50;99.90;;;;;;5007146;28;20056;-66
2022/11/28 12:17:31;;;;;;;18.92;15.85;;;7.60;99.90;;;;;;5006931;28;20088;-65
2022/11/28 12:20:22;;;;;;;19.45;16.85;;;7.80;99.90;;;;;;5005185;28;20062;-62
2022/11/28 12:23:17;;;;;;;19.88;17.05;;;7.60;99.90;;;;;;5005996;28;20050;-63
2022/11/28 12:26:15;;;;;;;19.55;17.15;;;7.60;99.90;;;;;;5006632;28;20096;-64
2022/11/28 12:29:15;;;;;;;21.23;17.77;;;7.50;99.90;;;;;;5006443;28;20125;-63
2022/11/28 12:31:46;;;;;;;19.42;17.08;;;7.60;99.90;;;;;;5006401;28;20046;-63
2022/11/28 12:34:30;;;;;;;18.20;13.95;;;7.60;99.90;;;;;;5006187;28;20137;-64
2022/11/28 12:37:47;;;;;;;20.20;18.10;;;7.50;99.90;;;;;;5006144;28;20049;-63
2022/11/28 12:40:31;;;;;;;;;;;7.80;99.90;;;;;;5004254;28;20281;-64
2022/11/28 12:43:24;;;;;;;20.10;18.00;;;7.60;99.90;;;;;;5003986;28;19921;-63
2022/11/28 12:46:27;;;;;;;20.38;16.85;;;7.80;99.90;;;;;;5005843;28;20053;-60
2022/11/28 12:49:13;;;;;;;21.48;18.98;;;7.50;99.90;;;;;;5004069;28;20093;-63
2022/11/28 12:51:57;;;;;;;21.50;18.48;;;7.70;99.90;;;;;;5005695;28;20050;-68
2022/11/28 12:54:29;;;;;;;21.05;18.45;;;7.90;99.90;;;;;;5006202;28;20057;-64
2022/11/28 12:57:18;;;;;;;21.73;18.65;;;7.60;99.90;;;;;;5006674;28;20049;-64
2022/11/28 13:00:01;;;;;;;21.80;19.08;;;7.50;99.90;;;;;;5006330;28;20500;-64
2022/11/28 13:03:04;;;;;;;23.45;19.60;;;7.80;99.90;;;;;;5004969;28;20160;-64
2022/11/28 13:05:43;;;;;;;21.85;18.17;;;7.70;99.90;;;;;;4998320;28;20057;-63